sensor_id;sensor_type;location;lat;lon;timestamp;pressure;altitude;pressure_sealevel;temperature;humidity
70027;BME280;57506;50.092;15.804;2022-11-20T00:01:18;98886.56;;;-7.42;100.00
70027;BME280;57506;50.092;15.804;2022-11-20T00:03:44;98884.13;;;-7.45;100.00
70027;BME280;57506;50.092;15.804;2022-11-20T00:06:12;98896.53;;;-7.32;100.00
70027;BME280;57506;50.092;15.804;2022-11-20T00:08:38;98870.63;;;-7.37;100.00
70027;BME280;57506;50.092;15.804;2022-11-20T00:11:09;98895.94;;;-7.37;100.00
70027;BME280;57506;50.092;15.804;2022-11-20T00:13:35;98889.66;;;-7.49;100.00
70027;BME280;57506;50.092;15.804;2022-11-20T00:16:03;98885.94;;;-7.61;100.00
70027;BME280;57506;50.092;15.804;2022-11-20T00:18:29;98895.19;;;-7.69;100.00
70027;BME280;57506;50.092;15.804;2022-11-20T00:21:06;98876.38;;;-7.76;100.00
70027;BME280;57506;50.092;15.804;2022-11-20T00:23:32;98881.56;;;-7.60;100.00
70027;BME280;57506;50.092;15.804;2022-11-20T00:26:06;98873.50;;;-7.71;100.00
70027;BME280;57506;50.092;15.804;2022-11-20T00:28:31;98876.38;;;-7.76;100.00
70027;BME280;57506;50.092;15.804;2022-11-20T00:31:04;98875.53;;;-7.77;100.00
70027;BME280;57506;50.092;15.804;2022-11-20T00:33:31;98876.66;;;-7.81;100.00
70027;BME280;57506;50.092;15.804;2022-11-20T00:36:01;98880.84;;;-7.78;100.00
70027;BME280;57506;50.092;15.804;2022-11-20T00:38:27;98874.03;;;-7.81;100.00
70027;BME280;57506;50.092;15.804;2022-11-20T00:41:04;98874.69;;;-7.77;100.00
70027;BME280;57506;50.092;15.804;2022-11-20T00:43:30;98880.13;;;-7.96;100.00
70027;BME280;57506;50.092;15.804;2022-11-20T00:45:59;98892.25;;;-7.95;100.00
70027;BME280;57506;50.092;15.804;2022-11-20T00:48:25;98897.00;;;-8.01;100.00
70027;BME280;57506;50.092;15.804;2022-11-20T00:50:51;98886.09;;;-8.09;100.00
70027;BME280;57506;50.092;15.804;2022-11-20T00:53:17;98892.63;;;-8.17;100.00
70027;BME280;57506;50.092;15.804;2022-11-20T00:55:42;98886.78;;;-8.22;100.00
70027;BME280;57506;50.092;15.804;2022-11-20T00:58:08;98886.47;;;-8.16;100.00
70027;BME280;57506;50.092;15.804;2022-11-20T01:00:34;98885.72;;;-8.18;100.00
70027;BME280;57506;50.092;15.804;2022-11-20T01:02:59;98875.66;;;-8.25;100.00
70027;BME280;57506;50.092;15.804;2022-11-20T01:05:25;98900.31;;;-8.14;100.00
70027;BME280;57506;50.092;15.804;2022-11-20T01:07:50;98876.41;;;-8.23;100.00
70027;BME280;57506;50.092;15.804;2022-11-20T01:10:16;98891.34;;;-8.09;100.00
70027;BME280;57506;50.092;15.804;2022-11-20T01:12:42;98896.47;;;-8.08;100.00
70027;BME280;57506;50.092;15.804;2022-11-20T01:15:08;98870.50;;;-8.27;100.00
70027;BME280;57506;50.092;15.804;2022-11-20T01:17:33;98880.47;;;-8.18;100.00
70027;BME280;57506;50.092;15.804;2022-11-20T01:19:59;98861.09;;;-8.29;100.00
70027;BME280;57506;50.092;15.804;2022-11-20T01:22:24;98863.38;;;-8.39;100.00
70027;BME280;57506;50.092;15.804;2022-11-20T01:24:50;98867.84;;;-8.41;100.00
70027;BME280;57506;50.092;15.804;2022-11-20T01:27:15;98875.53;;;-8.38;100.00
70027;BME280;57506;50.092;15.804;2022-11-20T01:29:41;98878.19;;;-8.08;100.00
70027;BME280;57506;50.092;15.804;2022-11-20T01:32:06;98862.34;;;-8.21;100.00
70027;BME280;57506;50.092;15.804;2022-11-20T01:34:32;98876.94;;;-8.17;100.00
70027;BME280;57506;50.092;15.804;2022-11-20T01:36:57;98867.31;;;-8.16;100.00
70027;BME280;57506;50.092;15.804;2022-11-20T01:39:25;98871.63;;;-8.15;100.00
70027;BME280;57506;50.092;15.804;2022-11-20T01:41:52;98883.47;;;-7.94;100.00
70027;BME280;57506;50.092;15.804;2022-11-20T01:44:57;98877.53;;;-7.96;100.00
70027;BME280;57506;50.092;15.804;2022-11-20T01:47:37;98876.31;;;-7.90;100.00
70027;BME280;57506;50.092;15.804;2022-11-20T01:52:42;98870.03;;;-8.18;100.00
70027;BME280;57506;50.092;15.804;2022-11-20T01:55:15;98882.00;;;-8.14;100.00
70027;BME280;57506;50.092;15.804;2022-11-20T01:57:44;98877.63;;;-8.13;100.00
70027;BME280;57506;50.092;15.804;2022-11-20T02:00:14;98881.97;;;-7.82;100.00
70027;BME280;57506;50.092;15.804;2022-11-20T02:02:43;98856.81;;;-7.85;100.00
70027;BME280;57506;50.092;15.804;2022-11-20T02:07:49;98870.91;;;-7.87;100.00
70027;BME280;57506;50.092;15.804;2022-11-20T02:10:16;98879.03;;;-8.07;100.00
70027;BME280;57506;50.092;15.804;2022-11-20T02:12:41;98866.75;;;-8.37;100.00
70027;BME280;57506;50.092;15.804;2022-11-20T02:15:26;98865.06;;;-8.54;100.00
70027;BME280;57506;50.092;15.804;2022-11-20T02:17:51;98872.66;;;-8.49;100.00
70027;BME280;57506;50.092;15.804;2022-11-20T02:20:18;98873.59;;;-8.50;100.00
70027;BME280;57506;50.092;15.804;2022-11-20T02:23:08;98863.78;;;-8.31;100.00
70027;BME280;57506;50.092;15.804;2022-11-20T02:25:35;98854.84;;;-8.27;100.00
70027;BME280;57506;50.092;15.804;2022-11-20T02:28:02;98832.78;;;-8.37;100.00
70027;BME280;57506;50.092;15.804;2022-11-20T02:30:28;98839.44;;;-8.31;100.00
70027;BME280;57506;50.092;15.804;2022-11-20T02:32:54;98853.78;;;-8.38;100.00
70027;BME280;57506;50.092;15.804;2022-11-20T02:37:48;98833.31;;;-8.77;100.00
70027;BME280;57506;50.092;15.804;2022-11-20T02:40:15;98844.66;;;-8.78;100.00
70027;BME280;57506;50.092;15.804;2022-11-20T02:42:41;98836.16;;;-8.82;100.00
70027;BME280;57506;50.092;15.804;2022-11-20T02:45:07;98844.06;;;-8.68;100.00
70027;BME280;57506;50.092;15.804;2022-11-20T02:47:33;98826.97;;;-8.73;100.00
70027;BME280;57506;50.092;15.804;2022-11-20T02:49:58;98837.84;;;-8.65;100.00
70027;BME280;57506;50.092;15.804;2022-11-20T02:52:25;98831.94;;;-8.53;100.00
70027;BME280;57506;50.092;15.804;2022-11-20T02:54:50;98821.09;;;-8.61;100.00
70027;BME280;57506;50.092;15.804;2022-11-20T02:57:16;98832.78;;;-8.68;100.00
70027;BME280;57506;50.092;15.804;2022-11-20T02:59:41;98842.56;;;-8.72;100.00
70027;BME280;57506;50.092;15.804;2022-11-20T03:02:07;98840.88;;;-8.73;100.00
70027;BME280;57506;50.092;15.804;2022-11-20T03:04:32;98844.16;;;-8.69;100.00
70027;BME280;57506;50.092;15.804;2022-11-20T03:06:58;98840.44;;;-8.81;100.00
70027;BME280;57506;50.092;15.804;2022-11-20T03:09:23;98865.66;;;-8.64;100.00
70027;BME280;57506;50.092;15.804;2022-11-20T03:11:49;98863.63;;;-8.59;100.00
70027;BME280;57506;50.092;15.804;2022-11-20T03:14:14;98840.22;;;-8.76;100.00
70027;BME280;57506;50.092;15.804;2022-11-20T03:16:40;98838.69;;;-8.80;100.00
70027;BME280;57506;50.092;15.804;2022-11-20T03:19:06;98868.34;;;-8.66;100.00
70027;BME280;57506;50.092;15.804;2022-11-20T03:21:34;98864.75;;;-8.63;100.00
70027;BME280;57506;50.092;15.804;2022-11-20T03:24:00;98866.50;;;-8.64;100.00
70027;BME280;57506;50.092;15.804;2022-11-20T03:26:26;98860.25;;;-8.77;100.00
70027;BME280;57506;50.092;15.804;2022-11-20T03:28:55;98849.97;;;-8.80;100.00
70027;BME280;57506;50.092;15.804;2022-11-20T03:31:27;98854.59;;;-8.69;100.00
70027;BME280;57506;50.092;15.804;2022-11-20T03:33:53;98849.63;;;-8.58;100.00
70027;BME280;57506;50.092;15.804;2022-11-20T03:36:20;98857.16;;;-8.52;100.00
70027;BME280;57506;50.092;15.804;2022-11-20T03:38:46;98874.00;;;-8.58;100.00
70027;BME280;57506;50.092;15.804;2022-11-20T03:41:15;98847.09;;;-8.75;100.00
70027;BME280;57506;50.092;15.804;2022-11-20T03:43:41;98879.81;;;-8.68;100.00
70027;BME280;57506;50.092;15.804;2022-11-20T03:46:07;98880.13;;;-8.74;100.00
70027;BME280;57506;50.092;15.804;2022-11-20T03:48:33;98863.09;;;-8.81;100.00
70027;BME280;57506;50.092;15.804;2022-11-20T03:51:13;98872.47;;;-8.77;100.00
70027;BME280;57506;50.092;15.804;2022-11-20T03:53:40;98866.84;;;-8.54;100.00
70027;BME280;57506;50.092;15.804;2022-11-20T03:56:07;98869.28;;;-8.35;100.00
70027;BME280;57506;50.092;15.804;2022-11-20T03:58:37;98854.78;;;-8.41;100.00
70027;BME280;57506;50.092;15.804;2022-11-20T04:01:18;98848.38;;;-8.51;100.00
70027;BME280;57506;50.092;15.804;2022-11-20T04:03:45;98868.69;;;-8.56;100.00
70027;BME280;57506;50.092;15.804;2022-11-20T04:06:14;98868.38;;;-8.50;100.00
70027;BME280;57506;50.092;15.804;2022-11-20T04:08:40;98857.59;;;-8.44;100.00
70027;BME280;57506;50.092;15.804;2022-11-20T04:13:38;98852.91;;;-8.70;100.00
70027;BME280;57506;50.092;15.804;2022-11-20T04:16:05;98824.25;;;-8.88;100.00
70027;BME280;57506;50.092;15.804;2022-11-20T04:18:31;98827.03;;;-8.91;100.00
70027;BME280;57506;50.092;15.804;2022-11-20T04:20:57;98825.19;;;-8.89;100.00
70027;BME280;57506;50.092;15.804;2022-11-20T04:23:23;98851.38;;;-8.74;100.00
70027;BME280;57506;50.092;15.804;2022-11-20T04:25:49;98836.72;;;-8.93;100.00
70027;BME280;57506;50.092;15.804;2022-11-20T04:28:14;98849.59;;;-8.90;100.00
70027;BME280;57506;50.092;15.804;2022-11-20T04:30:40;98818.06;;;-9.18;100.00
70027;BME280;57506;50.092;15.804;2022-11-20T04:33:06;98855.47;;;-9.02;100.00
70027;BME280;57506;50.092;15.804;2022-11-20T04:35:34;98842.53;;;-8.88;100.00
70027;BME280;57506;50.092;15.804;2022-11-20T04:38:00;98831.34;;;-8.58;100.00
70027;BME280;57506;50.092;15.804;2022-11-20T04:40:25;98837.78;;;-8.48;100.00
70027;BME280;57506;50.092;15.804;2022-11-20T04:42:51;98824.72;;;-8.48;100.00
70027;BME280;57506;50.092;15.804;2022-11-20T04:45:16;98840.78;;;-8.40;100.00
70027;BME280;57506;50.092;15.804;2022-11-20T04:47:42;98838.69;;;-8.33;100.00
70027;BME280;57506;50.092;15.804;2022-11-20T04:50:08;98837.19;;;-8.37;100.00
70027;BME280;57506;50.092;15.804;2022-11-20T04:52:34;98819.31;;;-8.61;100.00
70027;BME280;57506;50.092;15.804;2022-11-20T04:54:59;98840.69;;;-8.70;100.00
70027;BME280;57506;50.092;15.804;2022-11-20T04:57:25;98837.59;;;-8.76;100.00
70027;BME280;57506;50.092;15.804;2022-11-20T04:59:50;98833.16;;;-8.92;100.00
70027;BME280;57506;50.092;15.804;2022-11-20T05:02:16;98799.88;;;-9.04;100.00
70027;BME280;57506;50.092;15.804;2022-11-20T05:04:41;98811.19;;;-8.88;100.00
70027;BME280;57506;50.092;15.804;2022-11-20T05:07:07;98808.59;;;-8.88;100.00
70027;BME280;57506;50.092;15.804;2022-11-20T05:09:32;98790.66;;;-8.94;100.00
70027;BME280;57506;50.092;15.804;2022-11-20T05:11:58;98829.19;;;-8.66;100.00
70027;BME280;57506;50.092;15.804;2022-11-20T05:14:23;98808.69;;;-8.73;100.00
70027;BME280;57506;50.092;15.804;2022-11-20T05:16:49;98829.41;;;-8.70;100.00
70027;BME280;57506;50.092;15.804;2022-11-20T05:19:14;98825.88;;;-8.69;100.00
70027;BME280;57506;50.092;15.804;2022-11-20T05:21:40;98788.28;;;-8.98;100.00
70027;BME280;57506;50.092;15.804;2022-11-20T05:24:05;98832.03;;;-8.70;100.00
70027;BME280;57506;50.092;15.804;2022-11-20T05:26:32;98819.63;;;-8.82;100.00
70027;BME280;57506;50.092;15.804;2022-11-20T05:28:57;98827.78;;;-8.89;100.00
70027;BME280;57506;50.092;15.804;2022-11-20T05:31:24;98802.50;;;-9.04;100.00
70027;BME280;57506;50.092;15.804;2022-11-20T05:33:50;98832.78;;;-8.84;100.00
70027;BME280;57506;50.092;15.804;2022-11-20T05:36:17;98819.72;;;-8.84;100.00
70027;BME280;57506;50.092;15.804;2022-11-20T05:38:43;98821.16;;;-8.78;100.00
70027;BME280;57506;50.092;15.804;2022-11-20T05:41:14;98825.56;;;-8.63;100.00
70027;BME280;57506;50.092;15.804;2022-11-20T05:43:43;98834.66;;;-8.55;100.00
70027;BME280;57506;50.092;15.804;2022-11-20T05:46:12;98819.72;;;-8.68;100.00
70027;BME280;57506;50.092;15.804;2022-11-20T05:48:39;98823.50;;;-8.58;100.00
70027;BME280;57506;50.092;15.804;2022-11-20T05:51:07;98830.69;;;-8.46;100.00
70027;BME280;57506;50.092;15.804;2022-11-20T05:53:35;98817.38;;;-8.41;100.00
70027;BME280;57506;50.092;15.804;2022-11-20T05:58:27;98825.97;;;-8.09;100.00
70027;BME280;57506;50.092;15.804;2022-11-20T06:00:53;98809.19;;;-8.05;100.00
70027;BME280;57506;50.092;15.804;2022-11-20T06:03:19;98803.25;;;-7.93;100.00
70027;BME280;57506;50.092;15.804;2022-11-20T06:05:44;98811.81;;;-7.76;100.00
70027;BME280;57506;50.092;15.804;2022-11-20T06:08:10;98805.97;;;-7.65;100.00
70027;BME280;57506;50.092;15.804;2022-11-20T06:10:35;98809.72;;;-7.55;100.00
70027;BME280;57506;50.092;15.804;2022-11-20T06:13:01;98786.34;;;-7.58;100.00
70027;BME280;57506;50.092;15.804;2022-11-20T06:15:26;98802.81;;;-7.42;100.00
70027;BME280;57506;50.092;15.804;2022-11-20T06:17:53;98797.25;;;-7.35;100.00
70027;BME280;57506;50.092;15.804;2022-11-20T06:20:20;98803.78;;;-7.28;100.00
70027;BME280;57506;50.092;15.804;2022-11-20T06:22:46;98757.50;;;-7.42;100.00
70027;BME280;57506;50.092;15.804;2022-11-20T06:25:11;98803.81;;;-7.00;100.00
70027;BME280;57506;50.092;15.804;2022-11-20T06:27:37;98796.31;;;-6.92;100.00
70027;BME280;57506;50.092;15.804;2022-11-20T06:30:03;98796.19;;;-6.76;100.00
70027;BME280;57506;50.092;15.804;2022-11-20T06:32:29;98793.84;;;-6.66;100.00
70027;BME280;57506;50.092;15.804;2022-11-20T06:34:54;98789.44;;;-6.52;100.00
70027;BME280;57506;50.092;15.804;2022-11-20T06:37:20;98797.78;;;-6.32;100.00
70027;BME280;57506;50.092;15.804;2022-11-20T06:39:45;98789.25;;;-6.22;100.00
70027;BME280;57506;50.092;15.804;2022-11-20T06:42:11;98787.78;;;-6.13;100.00
70027;BME280;57506;50.092;15.804;2022-11-20T06:44:36;98783.84;;;-6.06;100.00
70027;BME280;57506;50.092;15.804;2022-11-20T06:47:02;98785.00;;;-5.97;100.00
70027;BME280;57506;50.092;15.804;2022-11-20T06:49:27;98782.00;;;-5.91;100.00
70027;BME280;57506;50.092;15.804;2022-11-20T06:51:53;98802.44;;;-5.84;100.00
70027;BME280;57506;50.092;15.804;2022-11-20T06:54:18;98785.25;;;-5.75;100.00
70027;BME280;57506;50.092;15.804;2022-11-20T06:56:47;98794.81;;;-5.61;100.00
70027;BME280;57506;50.092;15.804;2022-11-20T06:59:13;98797.78;;;-5.53;100.00
70027;BME280;57506;50.092;15.804;2022-11-20T07:01:38;98790.13;;;-5.56;100.00
70027;BME280;57506;50.092;15.804;2022-11-20T07:04:04;98803.34;;;-5.45;100.00
70027;BME280;57506;50.092;15.804;2022-11-20T07:06:30;98809.56;;;-5.34;100.00
70027;BME280;57506;50.092;15.804;2022-11-20T07:08:56;98776.56;;;-5.50;100.00
70027;BME280;57506;50.092;15.804;2022-11-20T07:11:22;98769.31;;;-5.47;100.00
70027;BME280;57506;50.092;15.804;2022-11-20T07:13:48;98773.63;;;-5.33;100.00
70027;BME280;57506;50.092;15.804;2022-11-20T07:16:15;98763.88;;;-5.31;100.00
70027;BME280;57506;50.092;15.804;2022-11-20T07:18:40;98773.31;;;-5.29;100.00
70027;BME280;57506;50.092;15.804;2022-11-20T07:21:08;98788.88;;;-5.25;100.00
70027;BME280;57506;50.092;15.804;2022-11-20T07:23:34;98781.00;;;-5.25;100.00
70027;BME280;57506;50.092;15.804;2022-11-20T07:26:07;98785.72;;;-5.18;100.00
70027;BME280;57506;50.092;15.804;2022-11-20T07:28:33;98793.59;;;-5.05;100.00
70027;BME280;57506;50.092;15.804;2022-11-20T07:30:59;98795.78;;;-4.86;100.00
70027;BME280;57506;50.092;15.804;2022-11-20T07:33:25;98790.94;;;-4.80;100.00
70027;BME280;57506;50.092;15.804;2022-11-20T07:35:50;98790.81;;;-4.66;100.00
70027;BME280;57506;50.092;15.804;2022-11-20T07:38:16;98794.25;;;-4.52;100.00
70027;BME280;57506;50.092;15.804;2022-11-20T07:40:41;98803.16;;;-4.42;100.00
70027;BME280;57506;50.092;15.804;2022-11-20T07:43:07;98789.06;;;-4.41;100.00
70027;BME280;57506;50.092;15.804;2022-11-20T07:45:33;98810.78;;;-4.27;100.00
70027;BME280;57506;50.092;15.804;2022-11-20T07:47:58;98783.97;;;-4.32;100.00
70027;BME280;57506;50.092;15.804;2022-11-20T07:50:24;98795.91;;;-4.15;100.00
70027;BME280;57506;50.092;15.804;2022-11-20T07:52:49;98817.91;;;-4.16;100.00
70027;BME280;57506;50.092;15.804;2022-11-20T07:55:15;98792.75;;;-4.20;100.00
70027;BME280;57506;50.092;15.804;2022-11-20T07:57:41;98796.56;;;-4.00;100.00
70027;BME280;57506;50.092;15.804;2022-11-20T08:00:08;98806.38;;;-3.78;100.00
70027;BME280;57506;50.092;15.804;2022-11-20T08:02:37;98784.66;;;-3.93;100.00
70027;BME280;57506;50.092;15.804;2022-11-20T08:05:04;98783.47;;;-3.89;100.00
70027;BME280;57506;50.092;15.804;2022-11-20T08:07:41;98778.72;;;-3.84;100.00
70027;BME280;57506;50.092;15.804;2022-11-20T08:10:10;98753.34;;;-3.85;100.00
70027;BME280;57506;50.092;15.804;2022-11-20T08:12:36;98769.88;;;-3.72;100.00
70027;BME280;57506;50.092;15.804;2022-11-20T08:15:27;98771.50;;;-3.58;100.00
70027;BME280;57506;50.092;15.804;2022-11-20T08:17:59;98767.41;;;-3.62;100.00
70027;BME280;57506;50.092;15.804;2022-11-20T08:20:24;98787.72;;;-3.29;100.00
70027;BME280;57506;50.092;15.804;2022-11-20T08:22:50;98766.78;;;-3.31;100.00
70027;BME280;57506;50.092;15.804;2022-11-20T08:25:16;98776.50;;;-3.09;100.00
70027;BME280;57506;50.092;15.804;2022-11-20T08:27:41;98774.00;;;-2.99;100.00
70027;BME280;57506;50.092;15.804;2022-11-20T08:30:07;98769.56;;;-3.10;100.00
70027;BME280;57506;50.092;15.804;2022-11-20T08:32:33;98775.56;;;-2.97;100.00
70027;BME280;57506;50.092;15.804;2022-11-20T08:35:01;98777.22;;;-2.85;100.00
70027;BME280;57506;50.092;15.804;2022-11-20T08:37:26;98764.41;;;-2.89;100.00
70027;BME280;57506;50.092;15.804;2022-11-20T08:39:52;98781.53;;;-2.72;100.00
70027;BME280;57506;50.092;15.804;2022-11-20T08:42:19;98784.19;;;-2.61;100.00
70027;BME280;57506;50.092;15.804;2022-11-20T08:44:44;98764.16;;;-2.64;100.00
70027;BME280;57506;50.092;15.804;2022-11-20T08:47:10;98773.72;;;-2.52;100.00
70027;BME280;57506;50.092;15.804;2022-11-20T08:49:35;98784.41;;;-2.53;100.00
70027;BME280;57506;50.092;15.804;2022-11-20T08:52:01;98775.66;;;-2.65;100.00
70027;BME280;57506;50.092;15.804;2022-11-20T08:54:26;98792.16;;;-2.40;100.00
70027;BME280;57506;50.092;15.804;2022-11-20T08:56:52;98779.69;;;-2.38;100.00
70027;BME280;57506;50.092;15.804;2022-11-20T08:59:17;98786.22;;;-2.11;100.00
70027;BME280;57506;50.092;15.804;2022-11-20T09:01:43;98765.38;;;-2.25;100.00
70027;BME280;57506;50.092;15.804;2022-11-20T09:04:09;98783.50;;;-2.20;100.00
70027;BME280;57506;50.092;15.804;2022-11-20T09:06:34;98772.00;;;-2.19;100.00
70027;BME280;57506;50.092;15.804;2022-11-20T09:09:00;98768.59;;;-2.10;100.00
70027;BME280;57506;50.092;15.804;2022-11-20T09:11:25;98706.91;;;-2.41;100.00
70027;BME280;57506;50.092;15.804;2022-11-20T09:13:51;98749.25;;;-1.99;100.00
70027;BME280;57506;50.092;15.804;2022-11-20T09:16:17;98744.03;;;-1.90;100.00
70027;BME280;57506;50.092;15.804;2022-11-20T09:18:42;98761.31;;;-1.86;100.00
70027;BME280;57506;50.092;15.804;2022-11-20T09:21:12;98732.03;;;-1.94;100.00
70027;BME280;57506;50.092;15.804;2022-11-20T09:23:39;98753.22;;;-1.73;100.00
70027;BME280;57506;50.092;15.804;2022-11-20T09:26:07;98760.53;;;-1.77;100.00
70027;BME280;57506;50.092;15.804;2022-11-20T09:28:34;98733.06;;;-2.06;100.00
70027;BME280;57506;50.092;15.804;2022-11-20T09:30:59;98736.34;;;-2.14;100.00
70027;BME280;57506;50.092;15.804;2022-11-20T09:33:26;98744.41;;;-2.26;100.00
70027;BME280;57506;50.092;15.804;2022-11-20T09:35:51;98747.03;;;-2.26;100.00
70027;BME280;57506;50.092;15.804;2022-11-20T09:38:18;98733.72;;;-2.25;100.00
70027;BME280;57506;50.092;15.804;2022-11-20T09:40:55;98729.00;;;-2.10;100.00
70027;BME280;57506;50.092;15.804;2022-11-20T09:46:08;98730.88;;;-1.69;100.00
70027;BME280;57506;50.092;15.804;2022-11-20T09:49:05;98725.59;;;-1.69;100.00
70027;BME280;57506;50.092;15.804;2022-11-20T09:54:46;98697.38;;;-1.48;100.00
70027;BME280;57506;50.092;15.804;2022-11-20T09:57:15;98708.78;;;-1.47;100.00
70027;BME280;57506;50.092;15.804;2022-11-20T09:59:45;98676.53;;;-1.41;100.00
70027;BME280;57506;50.092;15.804;2022-11-20T10:04:47;98696.78;;;-1.51;100.00
70027;BME280;57506;50.092;15.804;2022-11-20T10:09:55;98685.41;;;-1.42;100.00
70027;BME280;57506;50.092;15.804;2022-11-20T10:15:38;98691.31;;;-1.29;100.00
70027;BME280;57506;50.092;15.804;2022-11-20T10:23:56;98693.63;;;-1.15;100.00
70027;BME280;57506;50.092;15.804;2022-11-20T10:26:53;98691.66;;;-1.13;100.00
70027;BME280;57506;50.092;15.804;2022-11-20T10:29:32;98690.31;;;-1.07;100.00
70027;BME280;57506;50.092;15.804;2022-11-20T10:32:14;98704.94;;;-1.03;100.00
70027;BME280;57506;50.092;15.804;2022-11-20T10:37:24;98696.88;;;-1.01;100.00
70027;BME280;57506;50.092;15.804;2022-11-20T10:40:00;98707.38;;;-0.90;100.00
70027;BME280;57506;50.092;15.804;2022-11-20T10:42:55;98710.81;;;-0.99;100.00
70027;BME280;57506;50.092;15.804;2022-11-20T10:48:22;98707.28;;;-1.10;100.00
70027;BME280;57506;50.092;15.804;2022-11-20T10:51:08;98691.50;;;-0.90;100.00
70027;BME280;57506;50.092;15.804;2022-11-20T11:01:40;98669.22;;;-0.88;100.00
70027;BME280;57506;50.092;15.804;2022-11-20T11:04:21;98668.28;;;-0.77;100.00
70027;BME280;57506;50.092;15.804;2022-11-20T11:06:49;98664.53;;;-0.75;100.00
70027;BME280;57506;50.092;15.804;2022-11-20T11:09:32;98668.16;;;-0.76;100.00
70027;BME280;57506;50.092;15.804;2022-11-20T11:11:58;98655.75;;;-0.85;100.00
70027;BME280;57506;50.092;15.804;2022-11-20T11:14:24;98644.16;;;-0.93;100.00
70027;BME280;57506;50.092;15.804;2022-11-20T11:16:57;98661.44;;;-0.89;100.00
70027;BME280;57506;50.092;15.804;2022-11-20T11:19:24;98663.97;;;-0.78;100.00
70027;BME280;57506;50.092;15.804;2022-11-20T11:21:59;98648.78;;;-0.76;100.00
70027;BME280;57506;50.092;15.804;2022-11-20T11:24:29;98640.28;;;-0.89;100.00
70027;BME280;57506;50.092;15.804;2022-11-20T11:27:01;98649.38;;;-0.63;100.00
70027;BME280;57506;50.092;15.804;2022-11-20T11:29:32;98620.25;;;-0.82;100.00
70027;BME280;57506;50.092;15.804;2022-11-20T11:34:34;98633.38;;;-0.52;100.00
70027;BME280;57506;50.092;15.804;2022-11-20T11:37:00;98621.25;;;-0.45;100.00
70027;BME280;57506;50.092;15.804;2022-11-20T11:39:29;98625.56;;;-0.44;100.00
70027;BME280;57506;50.092;15.804;2022-11-20T11:41:57;98644.81;;;-0.22;100.00
70027;BME280;57506;50.092;15.804;2022-11-20T11:44:31;98656.38;;;-0.43;100.00
70027;BME280;57506;50.092;15.804;2022-11-20T11:47:24;98656.47;;;-0.63;100.00
70027;BME280;57506;50.092;15.804;2022-11-20T11:58:42;98617.22;;;-0.68;100.00
70027;BME280;57506;50.092;15.804;2022-11-20T12:01:29;98626.25;;;-0.61;100.00
70027;BME280;57506;50.092;15.804;2022-11-20T12:06:50;98616.38;;;-0.59;100.00
70027;BME280;57506;50.092;15.804;2022-11-20T12:09:18;98633.38;;;-0.52;100.00
70027;BME280;57506;50.092;15.804;2022-11-20T12:12:05;98644.19;;;-0.74;100.00
70027;BME280;57506;50.092;15.804;2022-11-20T12:14:39;98629.56;;;-0.88;100.00
70027;BME280;57506;50.092;15.804;2022-11-20T12:17:10;98623.00;;;-0.93;100.00
70027;BME280;57506;50.092;15.804;2022-11-20T12:19:36;98624.78;;;-0.94;100.00
70027;BME280;57506;50.092;15.804;2022-11-20T12:30:17;98613.13;;;-0.91;100.00
70027;BME280;57506;50.092;15.804;2022-11-20T12:53:33;98574.84;;;-0.10;100.00
70027;BME280;57506;50.092;15.804;2022-11-20T12:56:17;98586.25;;;0.10;100.00
70027;BME280;57506;50.092;15.804;2022-11-20T13:01:53;98595.00;;;0.20;100.00
70027;BME280;57506;50.092;15.804;2022-11-20T13:07:05;98560.59;;;0.10;100.00
70027;BME280;57506;50.092;15.804;2022-11-20T13:09:32;98550.47;;;0.33;100.00
70027;BME280;57506;50.092;15.804;2022-11-20T13:12:09;98560.56;;;0.57;100.00
70027;BME280;57506;50.092;15.804;2022-11-20T13:15:04;98561.47;;;0.65;100.00
70027;BME280;57506;50.092;15.804;2022-11-20T13:20:06;98573.56;;;0.50;100.00
70027;BME280;57506;50.092;15.804;2022-11-20T13:27:49;98581.19;;;0.26;100.00
70027;BME280;57506;50.092;15.804;2022-11-20T13:30:18;98583.97;;;0.24;100.00
70027;BME280;57506;50.092;15.804;2022-11-20T13:32:51;98591.50;;;0.19;100.00
70027;BME280;57506;50.092;15.804;2022-11-20T13:40:38;98597.13;;;0.07;100.00
70027;BME280;57506;50.092;15.804;2022-11-20T13:43:37;98600.78;;;-0.04;100.00
70027;BME280;57506;50.092;15.804;2022-11-20T13:46:09;98581.38;;;-0.14;100.00
70027;BME280;57506;50.092;15.804;2022-11-20T13:48:43;98570.69;;;-0.22;100.00
70027;BME280;57506;50.092;15.804;2022-11-20T13:51:32;98578.19;;;-0.08;100.00
70027;BME280;57506;50.092;15.804;2022-11-20T13:56:52;98573.03;;;-0.10;100.00
70027;BME280;57506;50.092;15.804;2022-11-20T13:59:44;98571.06;;;-0.08;100.00
70027;BME280;57506;50.092;15.804;2022-11-20T14:02:17;98562.16;;;-0.07;100.00
70027;BME280;57506;50.092;15.804;2022-11-20T14:04:46;98559.22;;;-0.13;100.00
70027;BME280;57506;50.092;15.804;2022-11-20T14:07:13;98540.84;;;-0.15;100.00
70027;BME280;57506;50.092;15.804;2022-11-20T14:09:53;98551.69;;;-0.08;100.00
70027;BME280;57506;50.092;15.804;2022-11-20T14:12:22;98557.81;;;0.02;100.00
70027;BME280;57506;50.092;15.804;2022-11-20T14:14:51;98551.97;;;-0.11;100.00
70027;BME280;57506;50.092;15.804;2022-11-20T14:17:37;98540.59;;;-0.21;100.00
70027;BME280;57506;50.092;15.804;2022-11-20T14:20:11;98539.59;;;-0.20;100.00
70027;BME280;57506;50.092;15.804;2022-11-20T14:22:38;98532.34;;;-0.28;100.00
70027;BME280;57506;50.092;15.804;2022-11-20T14:28:04;98551.66;;;0.02;100.00
70027;BME280;57506;50.092;15.804;2022-11-20T14:30:42;98558.78;;;0.01;100.00
70027;BME280;57506;50.092;15.804;2022-11-20T14:33:13;98538.91;;;-0.22;100.00
70027;BME280;57506;50.092;15.804;2022-11-20T14:35:48;98541.13;;;-0.18;100.00
70027;BME280;57506;50.092;15.804;2022-11-20T14:38:17;98542.91;;;-0.09;100.00
70027;BME280;57506;50.092;15.804;2022-11-20T14:40:44;98526.38;;;-0.20;100.00
70027;BME280;57506;50.092;15.804;2022-11-20T14:43:27;98533.88;;;-0.25;100.00